createdAt,value
2023-02-25T00:00:18.804Z,26.40
2023-02-25T00:02:47.374Z,37.20
2023-02-25T00:05:15.926Z,33.70
2023-02-25T00:07:51.224Z,40.40
2023-02-25T00:10:19.445Z,38.80
2023-02-25T00:12:47.888Z,38.00
2023-02-25T00:15:16.030Z,35.30
2023-02-25T00:17:44.279Z,30.80
2023-02-25T00:20:15.262Z,39.60
2023-02-25T00:22:46.888Z,39.50
2023-02-25T00:25:16.936Z,36.50
2023-02-25T00:27:45.258Z,37.50
2023-02-25T00:30:14.407Z,29.90
2023-02-25T00:32:42.705Z,33.80
2023-02-25T00:35:13.046Z,35.50
2023-02-25T00:37:41.474Z,29.80
2023-02-25T00:40:16.367Z,38.30
2023-02-25T00:42:47.864Z,39.10
2023-02-25T00:45:16.355Z,36.20
2023-02-25T00:47:44.941Z,31.40
2023-02-25T00:50:14.534Z,34.00
2023-02-25T00:52:43.397Z,28.80
2023-02-25T00:55:15.847Z,33.00
2023-02-25T00:57:46.604Z,41.00
2023-02-25T01:00:17.477Z,36.60
2023-02-25T01:02:46.037Z,29.00
2023-02-25T01:05:14.813Z,30.90
2023-02-25T01:07:44.662Z,30.70
2023-02-25T01:10:13.716Z,44.20
2023-02-25T01:12:47.105Z,36.50
2023-02-25T01:15:16.952Z,34.80
2023-02-25T01:17:45.389Z,35.10
2023-02-25T01:20:20.195Z,39.60
2023-02-25T01:22:52.674Z,33.90
2023-02-25T01:25:26.286Z,36.00
2023-02-25T01:30:23.515Z,45.50
2023-02-25T01:32:52.773Z,37.30
2023-02-25T01:35:21.242Z,40.10
2023-02-25T01:37:50.576Z,39.30
2023-02-25T01:40:19.033Z,43.70
2023-02-25T01:42:47.660Z,35.40
2023-02-25T01:45:19.539Z,35.70
2023-02-25T01:47:54.236Z,37.90
2023-02-25T01:50:24.273Z,37.20
2023-02-25T01:52:55.148Z,38.00
2023-02-25T01:55:23.824Z,42.80
2023-02-25T01:57:52.433Z,37.70
2023-02-25T02:00:20.694Z,35.50
2023-02-25T02:02:53.890Z,30.60
2023-02-25T02:05:22.764Z,35.20
2023-02-25T02:07:51.296Z,36.10
2023-02-25T02:10:19.873Z,33.00
2023-02-25T02:12:48.699Z,47.80
2023-02-25T02:15:19.184Z,41.90
2023-02-25T02:17:57.472Z,34.00
2023-02-25T02:26:05.096Z,39.00
2023-02-25T02:28:51.513Z,36.30
2023-02-25T02:31:23.302Z,41.90
2023-02-25T02:34:00.129Z,39.70
2023-02-25T02:36:32.148Z,49.00
2023-02-25T02:39:00.924Z,38.80
2023-02-25T02:41:36.773Z,42.50
2023-02-25T02:44:11.655Z,43.20
2023-02-25T02:46:42.867Z,42.50
2023-02-25T02:51:43.182Z,38.60
2023-02-25T02:54:11.832Z,42.70
2023-02-25T02:56:42.524Z,59.10
2023-02-25T02:59:15.873Z,55.10
2023-02-25T03:01:50.809Z,49.80
2023-02-25T03:04:22.861Z,51.90
2023-02-25T03:06:52.783Z,39.00
2023-02-25T03:09:26.588Z,50.50
2023-02-25T03:11:55.279Z,45.60
2023-02-25T03:14:24.422Z,41.90
2023-02-25T03:17:07.859Z,46.40
2023-02-25T03:19:39.538Z,44.60
2023-02-25T03:22:08.987Z,44.70
2023-02-25T03:24:45.453Z,51.80
2023-02-25T03:27:49.721Z,49.10
2023-02-25T03:30:23.607Z,62.80
2023-02-25T03:32:53.803Z,48.60
2023-02-25T03:35:22.000Z,49.70
2023-02-25T03:37:52.151Z,47.40
2023-02-25T03:40:22.057Z,48.50
2023-02-25T03:42:54.882Z,54.70
2023-02-25T03:45:24.433Z,54.00
2023-02-25T03:47:54.119Z,61.90
2023-02-25T03:50:23.033Z,60.50
2023-02-25T03:53:15.127Z,58.40
2023-02-25T03:56:08.470Z,56.90
2023-02-25T03:58:38.054Z,51.20
2023-02-25T04:01:07.753Z,48.90
2023-02-25T04:03:36.121Z,59.70
2023-02-25T04:06:06.821Z,64.10
